Time;durP1;ratioP1;P1;durP2;ratioP2;P2;SDS_P1;SDS_P2;PMS_P1;PMS_P2;Temp;Humidity;BMP_temperature;BMP_pressure;BME280_temperature;BME280_humidity;BME280_pressure;Samples;Min_cycle;Max_cycle;Signal;HPM_P1;HPM_P2
2022/04/07 00:00:06;;;;;;;3.70;3.30;;;10.80;99.90;;;;;;5047329;28;20479;-44
2022/04/07 00:02:31;;;;;;;4.63;3.00;;;10.70;99.90;;;;;;5048103;28;20056;-43
2022/04/07 00:04:57;;;;;;;4.20;2.92;;;10.70;99.90;;;;;;5046312;28;20021;-43
2022/04/07 00:07:22;;;;;;;3.75;3.40;;;10.60;99.90;;;;;;5047572;28;20495;-43
2022/04/07 00:09:48;;;;;;;5.32;3.58;;;10.60;99.90;;;;;;5046896;28;20020;-45
2022/04/07 00:12:13;;;;;;;4.15;3.25;;;10.60;99.90;;;;;;5046997;28;20500;-43
2022/04/07 00:14:39;;;;;;;3.88;3.50;;;10.60;99.90;;;;;;5047740;28;20033;-43
2022/04/07 00:17:04;;;;;;;3.75;3.40;;;10.50;99.90;;;;;;5046984;28;20032;-42
2022/04/07 00:19:30;;;;;;;3.85;3.13;;;10.50;99.90;;;;;;5046180;28;20036;-44
2022/04/07 00:21:59;;;;;;;3.78;3.45;;;10.50;99.90;;;;;;5046546;28;20025;-43
2022/04/07 00:24:25;;;;;;;3.90;3.13;;;10.50;99.90;;;;;;5046995;28;20028;-43
2022/04/07 00:26:51;;;;;;;4.45;3.70;;;10.50;99.90;;;;;;5046294;28;20033;-43
2022/04/07 00:29:17;;;;;;;4.18;3.72;;;10.50;99.90;;;;;;5046575;28;20469;-43
2022/04/07 00:31:43;;;;;;;4.05;3.40;;;10.50;99.90;;;;;;5046135;28;20175;-43
2022/04/07 00:34:10;;;;;;;5.60;3.53;;;10.50;99.90;;;;;;5046978;28;20098;-43
2022/04/07 00:36:35;;;;;;;4.22;3.35;;;10.50;99.90;;;;;;5046971;28;20511;-44
2022/04/07 00:39:01;;;;;;;3.60;3.30;;;10.50;99.90;;;;;;5046473;28;20119;-44
2022/04/07 00:41:26;;;;;;;5.50;3.58;;;10.50;99.90;;;;;;5046262;28;20107;-43
2022/04/07 00:43:52;;;;;;;3.78;3.47;;;10.50;99.90;;;;;;5034828;28;20042;-45
2022/04/07 00:46:18;;;;;;;4.72;3.25;;;10.50;99.90;;;;;;5046146;28;20025;-43
2022/04/07 00:48:44;;;;;;;5.30;3.53;;;10.50;99.90;;;;;;5045988;28;20033;-43
2022/04/07 00:51:10;;;;;;;5.18;3.38;;;10.50;99.90;;;;;;5046993;28;20032;-42
2022/04/07 00:53:35;;;;;;;3.35;3.08;;;10.50;99.90;;;;;;5045430;28;20475;-42
2022/04/07 00:56:02;;;;;;;5.22;3.50;;;10.50;99.90;;;;;;5046141;28;20048;-43
2022/04/07 00:58:29;;;;;;;5.68;3.33;;;10.50;99.90;;;;;;5046062;28;20133;-44
2022/04/07 01:00:56;;;;;;;3.60;3.30;;;10.50;99.90;;;;;;5044949;28;20559;-44
2022/04/07 01:03:22;;;;;;;4.70;3.00;;;10.50;99.90;;;;;;5046076;28;20063;-43
2022/04/07 01:05:50;;;;;;;7.05;3.00;;;10.60;99.90;;;;;;5046174;28;20049;-43
2022/04/07 01:08:15;;;;;;;3.08;2.50;;;10.60;99.90;;;;;;5045730;28;20056;-43
2022/04/07 01:10:42;;;;;;;5.32;2.60;;;10.50;99.90;;;;;;5046195;28;20477;-44
2022/04/07 01:13:08;;;;;;;5.40;2.65;;;10.50;99.90;;;;;;5046207;28;20048;-42
2022/04/07 01:15:34;;;;;;;4.45;2.13;;;10.50;99.90;;;;;;5045576;28;20048;-44
2022/04/07 01:18:03;;;;;;;4.00;1.85;;;10.60;99.90;;;;;;5045087;28;20056;-44
2022/04/07 01:20:29;;;;;;;7.57;2.58;;;10.60;99.90;;;;;;5046592;28;20033;-43
2022/04/07 01:22:56;;;;;;;4.47;1.90;;;10.60;99.90;;;;;;5044761;28;20017;-43
2022/04/07 01:25:21;;;;;;;5.05;2.30;;;10.50;99.90;;;;;;5046006;28;20020;-43
2022/04/07 01:27:49;;;;;;;5.95;2.97;;;10.50;99.90;;;;;;5045304;28;20025;-43
2022/04/07 01:30:15;;;;;;;6.03;2.15;;;10.50;99.90;;;;;;5045611;28;20070;-44
2022/04/07 01:32:47;;;;;;;5.32;1.98;;;10.40;99.90;;;;;;5044664;28;20041;-44
2022/04/07 01:35:13;;;;;;;4.47;2.03;;;10.30;99.90;;;;;;5042555;28;20381;-43
2022/04/07 01:37:44;;;;;;;6.25;2.53;;;10.20;99.90;;;;;;5046453;28;20021;-43
2022/04/07 01:40:17;;;;;;;6.07;2.17;;;10.20;99.90;;;;;;5045701;28;20031;-43
2022/04/07 01:42:45;;;;;;;5.20;2.10;;;10.10;99.90;;;;;;5044395;28;20036;-43
2022/04/07 01:45:11;;;;;;;7.70;2.40;;;10.10;99.90;;;;;;5045619;28;20052;-43
2022/04/07 01:47:43;;;;;;;7.07;2.03;;;10.00;99.90;;;;;;5045991;28;20474;-43
2022/04/07 01:50:10;;;;;;;4.70;2.00;;;10.00;99.90;;;;;;5045428;28;20021;-43
2022/04/07 01:52:37;;;;;;;5.07;2.10;;;9.90;99.90;;;;;;5045771;28;20021;-42
2022/04/07 01:55:03;;;;;;;4.85;2.10;;;9.90;99.90;;;;;;5044544;28;20033;-43
2022/04/07 01:57:31;;;;;;;4.15;2.03;;;9.90;99.90;;;;;;5044834;28;20103;-42
2022/04/07 01:59:58;;;;;;;6.90;2.35;;;9.90;99.90;;;;;;5044714;28;20021;-43
2022/04/07 02:02:23;;;;;;;3.58;2.65;;;9.90;99.90;;;;;;5045611;28;20109;-43
2022/04/07 02:04:56;;;;;;;5.43;2.05;;;9.90;99.90;;;;;;5044689;28;20028;-43
2022/04/07 02:07:22;;;;;;;5.28;2.17;;;9.90;99.90;;;;;;5045311;28;20770;-43
2022/04/07 02:09:48;;;;;;;6.28;1.95;;;9.90;99.90;;;;;;5044848;28;20037;-44
2022/04/07 02:12:14;;;;;;;4.35;2.88;;;10.00;99.90;;;;;;5045315;28;20033;-43
2022/04/07 02:14:40;;;;;;;5.05;2.40;;;10.00;99.90;;;;;;5045153;28;20590;-44
2022/04/07 02:17:06;;;;;;;5.60;2.30;;;10.00;99.90;;;;;;5044754;28;20090;-41
2022/04/07 02:19:32;;;;;;;6.50;2.20;;;10.00;99.90;;;;;;5045338;28;20590;-42
2022/04/07 02:21:58;;;;;;;6.18;2.38;;;10.00;99.90;;;;;;5045323;28;20211;-44
2022/04/07 02:24:23;;;;;;;4.68;2.33;;;10.00;99.90;;;;;;5044678;28;20128;-43
2022/04/07 02:26:49;;;;;;;4.40;2.40;;;10.00;99.90;;;;;;5044501;28;20495;-43
2022/04/07 02:29:14;;;;;;;4.53;2.50;;;9.90;99.90;;;;;;5045448;28;20472;-43
2022/04/07 02:31:40;;;;;;;7.88;2.58;;;9.90;99.90;;;;;;5043797;28;20037;-44
2022/04/07 02:34:06;;;;;;;5.00;2.15;;;9.90;99.90;;;;;;5044877;28;20045;-42
2022/04/07 02:36:32;;;;;;;7.30;2.42;;;9.90;99.90;;;;;;5045107;28;20045;-43
2022/04/07 02:38:57;;;;;;;6.55;3.00;;;9.80;99.90;;;;;;5043587;28;20033;-43
2022/04/07 02:41:24;;;;;;;4.20;2.50;;;9.80;99.90;;;;;;5045049;28;20104;-42
2022/04/07 02:43:50;;;;;;;9.38;4.05;;;9.80;99.90;;;;;;5047328;28;20079;-43
2022/04/07 02:46:15;;;;;;;5.22;2.88;;;9.80;99.90;;;;;;5048526;28;20033;-43
2022/04/07 02:48:41;;;;;;;7.53;3.25;;;9.80;99.90;;;;;;5048119;28;20032;-42
2022/04/07 02:51:06;;;;;;;5.70;2.78;;;9.80;99.90;;;;;;5048847;28;20275;-43
2022/04/07 02:53:32;;;;;;;8.23;2.80;;;9.80;99.90;;;;;;5047944;28;20040;-44
2022/04/07 02:55:57;;;;;;;6.38;2.97;;;9.80;99.90;;;;;;5048015;28;20473;-43
2022/04/07 02:58:23;;;;;;;5.90;2.95;;;9.80;99.90;;;;;;5049013;28;20041;-43
2022/04/07 03:00:48;;;;;;;7.07;3.00;;;9.80;99.90;;;;;;5047337;28;20531;-42
2022/04/07 03:03:14;;;;;;;8.20;2.70;;;9.80;99.90;;;;;;5049286;28;20029;-43
2022/04/07 03:05:39;;;;;;;8.45;3.03;;;9.80;99.90;;;;;;5049155;28;20164;-43
2022/04/07 03:08:05;;;;;;;11.82;3.30;;;9.80;99.90;;;;;;5047310;28;20032;-43
2022/04/07 03:10:30;;;;;;;6.85;2.78;;;9.80;99.90;;;;;;5048788;28;20504;-43
2022/04/07 03:12:56;;;;;;;8.13;2.92;;;9.80;99.90;;;;;;5047949;28;20210;-43
2022/04/07 03:15:21;;;;;;;8.07;3.20;;;9.80;99.90;;;;;;5048198;28;20025;-43
2022/04/07 03:17:47;;;;;;;7.80;3.40;;;9.80;99.90;;;;;;5047926;28;20486;-43
2022/04/07 03:20:12;;;;;;;10.30;3.60;;;9.80;99.90;;;;;;5047793;28;20025;-42
2022/04/07 03:22:38;;;;;;;13.15;3.33;;;9.80;99.90;;;;;;5048634;28;20021;-42
2022/04/07 03:25:04;;;;;;;12.25;3.55;;;9.90;99.90;;;;;;5048187;28;20055;-43
2022/04/07 03:27:29;;;;;;;9.10;3.10;;;9.90;99.90;;;;;;5047843;28;20480;-43
2022/04/07 03:29:55;;;;;;;10.77;3.03;;;9.90;99.90;;;;;;5047624;28;20025;-43
2022/04/07 03:32:20;;;;;;;8.45;2.50;;;10.00;99.90;;;;;;5047966;28;20064;-43
2022/04/07 03:34:46;;;;;;;8.38;2.65;;;10.00;99.90;;;;;;5047418;28;20089;-43
2022/04/07 03:37:11;;;;;;;6.93;2.35;;;10.00;99.90;;;;;;5047996;28;20112;-43
2022/04/07 03:39:37;;;;;;;7.82;3.13;;;10.00;99.90;;;;;;5048124;28;20588;-43
2022/04/07 03:42:03;;;;;;;8.35;2.58;;;10.10;99.90;;;;;;5047188;28;20427;-42
2022/04/07 03:44:28;;;;;;;10.82;2.80;;;10.10;99.90;;;;;;5047748;28;20056;-42
2022/04/07 03:46:53;;;;;;;10.13;2.63;;;10.10;99.90;;;;;;5047217;28;20025;-44
2022/04/07 03:49:20;;;;;;;8.52;2.50;;;10.10;99.90;;;;;;5047167;28;20434;-42
2022/04/07 03:51:45;;;;;;;9.00;2.72;;;10.10;99.90;;;;;;5047262;28;20067;-43
2022/04/07 03:54:14;;;;;;;10.02;2.60;;;10.00;99.90;;;;;;5046574;28;20041;-43
2022/04/07 03:56:40;;;;;;;9.95;2.50;;;10.00;99.90;;;;;;5046912;28;20076;-42
2022/04/07 03:59:06;;;;;;;10.95;3.25;;;10.00;99.90;;;;;;5047635;28;20016;-42
2022/04/07 04:01:31;;;;;;;8.10;2.60;;;9.90;99.90;;;;;;5047795;28;20370;-43
2022/04/07 04:03:57;;;;;;;9.45;2.85;;;9.90;99.90;;;;;;5046185;28;20028;-43
2022/04/07 04:06:22;;;;;;;10.00;2.83;;;9.80;99.90;;;;;;5048012;28;20035;-43
2022/04/07 04:08:48;;;;;;;10.65;2.60;;;9.80;99.90;;;;;;5046950;28;20104;-43
2022/04/07 04:11:13;;;;;;;8.52;2.92;;;9.80;99.90;;;;;;5047027;28;20052;-42
2022/04/07 04:13:40;;;;;;;9.15;2.90;;;9.80;99.90;;;;;;5047269;28;20381;-42
2022/04/07 04:16:06;;;;;;;11.02;3.47;;;9.80;99.90;;;;;;5047727;28;20451;-44
2022/04/07 04:18:32;;;;;;;9.10;2.67;;;9.80;99.90;;;;;;5046830;28;20032;-44
2022/04/07 04:20:58;;;;;;;6.85;2.55;;;9.80;99.90;;;;;;5046436;28;20027;-43
2022/04/07 04:23:23;;;;;;;9.80;2.40;;;9.80;99.90;;;;;;5047438;28;20391;-43
2022/04/07 04:25:49;;;;;;;5.00;2.38;;;9.80;99.90;;;;;;5045722;28;20558;-44
2022/04/07 04:28:14;;;;;;;11.60;2.92;;;9.90;99.90;;;;;;5047148;28;20033;-43
2022/04/07 04:30:40;;;;;;;7.72;2.45;;;9.90;99.90;;;;;;5046339;28;20384;-43
2022/04/07 04:33:06;;;;;;;6.47;2.15;;;9.90;99.90;;;;;;5046886;28;20041;-43
2022/04/07 04:35:31;;;;;;;8.35;2.72;;;9.90;99.90;;;;;;5047066;28;20377;-43
2022/04/07 04:38:00;;;;;;;7.53;2.42;;;10.00;99.90;;;;;;5046123;28;20071;-43
2022/04/07 04:40:25;;;;;;;7.20;2.17;;;9.90;99.90;;;;;;5046813;28;20108;-44
2022/04/07 04:42:51;;;;;;;7.13;2.35;;;10.00;99.90;;;;;;5046370;28;20389;-43
2022/04/07 04:45:16;;;;;;;7.53;2.08;;;10.00;99.90;;;;;;5046310;28;20017;-43
2022/04/07 04:47:42;;;;;;;8.05;2.33;;;10.00;99.90;;;;;;5046119;28;20029;-42
2022/04/07 04:50:08;;;;;;;9.75;2.80;;;10.00;99.90;;;;;;5046953;28;20392;-43
2022/04/07 04:52:33;;;;;;;5.38;2.30;;;10.10;99.90;;;;;;5045896;28;20033;-42
2022/04/07 04:54:59;;;;;;;7.95;2.80;;;10.10;99.90;;;;;;5045801;28;20031;-42
2022/04/07 04:57:25;;;;;;;6.43;2.88;;;10.10;99.90;;;;;;5046466;28;20111;-43
2022/04/07 04:59:50;;;;;;;8.40;2.47;;;10.20;99.90;;;;;;5045278;28;20480;-44
2022/04/07 05:02:15;;;;;;;9.85;2.47;;;10.20;99.90;;;;;;5046360;28;20032;-43
2022/04/07 05:04:41;;;;;;;11.30;2.60;;;10.20;99.90;;;;;;5045845;28;20094;-43
2022/04/07 05:07:07;;;;;;;8.20;2.72;;;10.20;99.90;;;;;;5046070;28;20052;-42
2022/04/07 05:09:32;;;;;;;6.80;2.00;;;10.30;99.90;;;;;;5044390;28;20032;-43
2022/04/07 05:11:58;;;;;;;8.15;2.10;;;10.20;99.90;;;;;;5044243;28;20028;-44
2022/04/07 05:14:23;;;;;;;6.70;1.88;;;10.20;99.90;;;;;;5045185;28;20467;-42
2022/04/07 05:16:49;;;;;;;4.10;1.92;;;10.20;99.90;;;;;;5044785;28;20060;-43
2022/04/07 05:19:15;;;;;;;5.47;1.75;;;10.20;99.90;;;;;;5045121;28;20676;-43
2022/04/07 05:21:40;;;;;;;4.20;1.52;;;10.30;99.90;;;;;;5044349;28;20029;-43
2022/04/07 05:24:06;;;;;;;6.40;1.75;;;10.30;99.90;;;;;;5045821;28;20064;-43
2022/04/07 05:26:31;;;;;;;8.52;1.90;;;10.30;99.90;;;;;;5046225;28;20016;-42
2022/04/07 05:28:57;;;;;;;5.53;2.00;;;10.30;99.90;;;;;;5044702;28;20118;-42
2022/04/07 05:31:23;;;;;;;5.05;1.90;;;10.20;99.90;;;;;;5045520;28;20393;-43
2022/04/07 05:33:48;;;;;;;4.43;2.05;;;10.30;99.90;;;;;;5044581;28;20384;-44
2022/04/07 05:36:14;;;;;;;4.28;2.22;;;10.30;99.90;;;;;;5045429;28;20036;-43
2022/04/07 05:38:39;;;;;;;3.83;1.50;;;10.30;99.90;;;;;;5045828;28;20814;-42
2022/04/07 05:41:07;;;;;;;3.63;1.50;;;10.30;99.90;;;;;;5044575;28;20036;-43
2022/04/07 05:43:33;;;;;;;2.05;1.30;;;10.30;99.90;;;;;;5046027;28;20129;-43
2022/04/07 05:45:58;;;;;;;3.03;1.42;;;10.30;99.90;;;;;;5045248;28;20186;-44
2022/04/07 05:48:24;;;;;;;3.40;1.33;;;10.30;99.90;;;;;;5043206;28;20039;-43
2022/04/07 05:50:49;;;;;;;3.13;1.30;;;10.20;99.90;;;;;;5045085;28;20059;-43
2022/04/07 05:53:15;;;;;;;2.03;1.13;;;10.30;99.90;;;;;;5045317;28;20040;-42
2022/04/07 05:55:40;;;;;;;2.53;1.17;;;10.30;99.90;;;;;;5045286;28;20021;-44
2022/04/07 05:58:08;;;;;;;3.65;1.55;;;10.30;99.90;;;;;;5045199;28;20049;-41
2022/04/07 06:00:34;;;;;;;2.38;1.20;;;10.30;99.90;;;;;;5046103;28;20053;-42
2022/04/07 06:02:59;;;;;;;2.03;1.10;;;10.20;99.90;;;;;;5047174;28;20043;-40
2022/04/07 06:05:25;;;;;;;3.55;1.50;;;10.20;99.90;;;;;;5048947;28;20029;-42
2022/04/07 06:07:56;;;;;;;4.53;1.80;;;10.20;99.90;;;;;;5048253;28;20844;-41
2022/04/07 06:10:21;;;;;;;2.60;1.60;;;10.20;99.90;;;;;;5046587;28;20035;-43
2022/04/07 06:12:47;;;;;;;2.42;1.45;;;10.20;99.90;;;;;;5044731;28;20037;-43
2022/04/07 06:15:13;;;;;;;5.10;1.83;;;10.20;99.90;;;;;;5045981;28;20036;-44
2022/04/07 06:17:41;;;;;;;4.50;1.42;;;10.10;99.90;;;;;;5047064;28;20033;-43
2022/04/07 06:20:08;;;;;;;3.05;1.17;;;10.10;99.90;;;;;;5041126;28;20115;-43
2022/04/07 06:22:34;;;;;;;2.97;1.23;;;10.00;99.90;;;;;;5052048;28;20032;-43
2022/04/07 06:25:00;;;;;;;3.85;1.50;;;10.00;99.90;;;;;;5050943;28;20013;-43
2022/04/07 06:27:39;;;;;;;2.72;1.42;;;10.00;99.90;;;;;;5052529;28;20033;-43
2022/04/07 06:30:07;;;;;;;2.97;1.30;;;10.00;99.90;;;;;;5048576;28;20083;-43
2022/04/07 06:32:32;;;;;;;5.55;1.50;;;10.00;99.90;;;;;;5051984;28;20433;-43
2022/04/07 06:34:59;;;;;;;3.08;1.35;;;10.00;99.90;;;;;;5050803;28;20560;-42
2022/04/07 06:37:25;;;;;;;3.50;1.38;;;10.00;99.90;;;;;;5051606;28;20056;-42
2022/04/07 06:39:50;;;;;;;5.00;1.70;;;10.00;99.90;;;;;;5050977;28;20290;-41
2022/04/07 06:42:16;;;;;;;3.08;1.60;;;9.90;99.90;;;;;;5052655;28;20029;-43
2022/04/07 06:44:44;;;;;;;3.00;1.88;;;9.90;99.90;;;;;;5050694;28;20021;-43
2022/04/07 06:47:10;;;;;;;4.50;1.75;;;9.90;99.90;;;;;;5052026;28;20141;-43
2022/04/07 06:49:35;;;;;;;2.25;1.63;;;9.90;99.90;;;;;;5051762;28;20476;-43
2022/04/07 06:52:02;;;;;;;4.18;1.70;;;9.90;99.90;;;;;;5050455;28;20630;-43
2022/04/07 06:54:27;;;;;;;3.08;2.13;;;9.80;99.90;;;;;;5051724;28;20052;-43
2022/04/07 06:56:52;;;;;;;2.53;1.83;;;9.80;99.90;;;;;;5051136;28;20115;-42
2022/04/07 06:59:18;;;;;;;3.97;1.85;;;9.80;99.90;;;;;;5050988;28;20013;-43
2022/04/07 07:01:44;;;;;;;5.65;1.90;;;9.80;99.90;;;;;;5051819;28;20053;-43
2022/04/07 07:04:10;;;;;;;1.40;0.60;;;9.80;99.90;;;;;;5051776;28;20032;-43
2022/04/07 07:06:35;;;;;;;2.45;0.40;;;9.50;99.90;;;;;;5051341;28;20048;-43
2022/04/07 07:09:01;;;;;;;2.22;0.80;;;9.00;99.90;;;;;;5051391;28;20056;-42
2022/04/07 07:11:29;;;;;;;2.08;0.60;;;8.40;99.90;;;;;;5051510;28;20361;-42
2022/04/07 07:13:54;;;;;;;0.93;0.40;;;7.80;99.90;;;;;;5050669;28;20029;-42
2022/04/07 07:16:20;;;;;;;2.03;0.40;;;7.40;99.90;;;;;;5051200;28;20033;-43
2022/04/07 07:18:48;;;;;;;3.17;0.73;;;7.10;99.90;;;;;;5051212;28;20150;-42
2022/04/07 07:21:14;;;;;;;6.22;0.63;;;7.00;99.90;;;;;;5050926;28;20025;-43
2022/04/07 07:23:42;;;;;;;2.47;0.95;;;6.80;99.90;;;;;;5049299;28;20025;-43
2022/04/07 07:26:08;;;;;;;2.33;0.50;;;6.80;99.90;;;;;;5051263;28;20040;-42
2022/04/07 07:28:33;;;;;;;1.27;0.50;;;6.80;99.90;;;;;;5050226;28;20036;-43
2022/04/07 07:30:59;;;;;;;2.42;0.70;;;6.80;99.90;;;;;;5046820;28;20029;-42
2022/04/07 07:33:25;;;;;;;3.20;1.00;;;6.80;99.90;;;;;;5047649;28;20624;-43
2022/04/07 07:35:50;;;;;;;2.95;0.90;;;6.80;99.90;;;;;;5047353;28;20764;-43
2022/04/07 07:38:16;;;;;;;1.75;0.57;;;6.70;99.90;;;;;;5048734;28;20424;-42
2022/04/07 07:40:41;;;;;;;1.88;0.60;;;6.70;99.90;;;;;;5046860;28;20354;-43
2022/04/07 07:43:07;;;;;;;2.65;0.90;;;6.80;99.90;;;;;;5048266;28;20017;-41
2022/04/07 07:45:34;;;;;;;3.20;0.82;;;6.80;99.90;;;;;;5048011;28;20495;-43
2022/04/07 07:47:59;;;;;;;2.17;1.00;;;6.80;99.90;;;;;;5046585;28;20523;-44
2022/04/07 07:50:25;;;;;;;3.42;0.90;;;6.80;99.90;;;;;;5047762;28;20025;-43
2022/04/07 07:52:51;;;;;;;5.03;1.10;;;6.80;99.90;;;;;;5047791;28;20040;-43
2022/04/07 07:55:17;;;;;;;2.28;1.02;;;6.80;99.90;;;;;;5047504;28;20037;-42
2022/04/07 07:57:43;;;;;;;3.10;1.20;;;6.80;99.90;;;;;;5046907;28;20496;-42
2022/04/07 08:00:10;;;;;;;1.98;1.00;;;6.70;99.90;;;;;;5048002;28;20040;-43
2022/04/07 08:02:37;;;;;;;3.58;1.17;;;6.70;99.90;;;;;;5047058;28;21044;-43
2022/04/07 08:05:04;;;;;;;4.60;1.42;;;6.70;99.90;;;;;;5047554;28;20472;-43
2022/04/07 08:07:30;;;;;;;2.97;1.00;;;6.70;99.90;;;;;;5047570;28;20485;-43
2022/04/07 08:09:56;;;;;;;6.20;1.35;;;6.70;99.90;;;;;;5046548;28;20053;-43
2022/04/07 08:12:23;;;;;;;2.92;1.10;;;6.80;99.90;;;;;;5047168;28;20025;-43
2022/04/07 08:14:49;;;;;;;3.60;1.00;;;6.70;99.90;;;;;;5047516;28;20473;-45
2022/04/07 08:17:14;;;;;;;2.92;1.38;;;6.80;99.90;;;;;;5047336;28;20075;-42
2022/04/07 08:19:40;;;;;;;4.45;0.98;;;6.80;99.90;;;;;;5048414;28;20036;-43
2022/04/07 08:22:06;;;;;;;2.75;1.15;;;6.70;99.90;;;;;;5047520;28;20028;-43
2022/04/07 08:24:31;;;;;;;5.30;1.02;;;6.70;99.90;;;;;;5046542;28;20029;-42
2022/04/07 08:26:57;;;;;;;1.92;0.80;;;6.80;99.90;;;;;;5046692;28;20017;-42
2022/04/07 08:29:22;;;;;;;3.55;0.98;;;6.80;99.90;;;;;;5047139;28;20396;-42
2022/04/07 08:31:51;;;;;;;3.78;0.80;;;6.90;99.90;;;;;;5045985;28;20020;-42
2022/04/07 08:34:18;;;;;;;4.32;1.00;;;7.00;99.90;;;;;;5047124;28;20044;-42
2022/04/07 08:36:47;;;;;;;5.43;1.15;;;7.10;99.90;;;;;;5046231;28;20036;-42
2022/04/07 08:39:13;;;;;;;4.07;1.10;;;7.20;99.90;;;;;;5046188;28;20057;-43
2022/04/07 08:41:45;;;;;;;5.22;1.55;;;7.40;99.90;;;;;;5046492;28;20064;-42
2022/04/07 08:44:11;;;;;;;2.33;1.10;;;7.60;99.90;;;;;;5046526;28;20040;-43
2022/04/07 08:46:37;;;;;;;3.55;1.38;;;7.70;99.90;;;;;;5046856;28;20033;-43
2022/04/07 08:49:04;;;;;;;3.28;1.25;;;7.80;99.90;;;;;;5045730;28;20033;-43
2022/04/07 08:51:31;;;;;;;3.03;1.10;;;7.90;99.90;;;;;;5026859;28;20033;-44
2022/04/07 08:53:57;;;;;;;3.47;1.48;;;7.80;99.90;;;;;;5040223;28;20129;-42
2022/04/07 08:56:23;;;;;;;3.35;1.52;;;7.80;99.90;;;;;;5046669;28;20108;-44
2022/04/07 08:58:49;;;;;;;2.92;1.40;;;7.90;99.90;;;;;;5045630;28;20044;-43
2022/04/07 09:01:15;;;;;;;5.45;1.35;;;8.00;99.90;;;;;;5046485;28;20029;-43
2022/04/07 09:03:42;;;;;;;4.05;1.67;;;8.20;99.90;;;;;;5045914;28;20039;-43
2022/04/07 09:06:07;;;;;;;2.88;1.40;;;8.30;99.90;;;;;;5046201;28;20033;-44
2022/04/07 09:08:39;;;;;;;3.97;1.33;;;8.50;99.90;;;;;;5046866;28;20040;-43
2022/04/07 09:11:07;;;;;;;2.90;1.33;;;8.60;99.90;;;;;;5046474;28;20647;-43
2022/04/07 09:13:39;;;;;;;2.85;1.15;;;8.60;99.90;;;;;;5045697;28;20809;-43
2022/04/07 09:16:13;;;;;;;4.97;1.45;;;8.60;99.90;;;;;;5035721;28;20032;-43
2022/04/07 09:18:40;;;;;;;3.53;1.52;;;8.70;99.90;;;;;;5046307;28;20036;-43
2022/04/07 09:21:27;;;;;;;2.83;1.23;;;8.90;99.90;;;;;;5045234;28;20388;-43
2022/04/07 09:23:53;;;;;;;1.80;1.27;;;9.10;99.90;;;;;;5045322;28;20036;-42
2022/04/07 09:26:19;;;;;;;5.38;1.30;;;9.30;99.90;;;;;;5045223;28;20423;-42
2022/04/07 09:28:47;;;;;;;2.33;1.25;;;9.40;99.90;;;;;;5046191;28;20036;-43
2022/04/07 09:31:15;;;;;;;4.75;1.50;;;9.50;99.90;;;;;;5046318;28;20021;-43
2022/04/07 09:33:41;;;;;;;4.07;1.15;;;9.50;99.90;;;;;;5045119;28;20149;-43
2022/04/07 09:36:10;;;;;;;4.35;1.33;;;9.60;99.90;;;;;;5046442;28;20063;-42
2022/04/07 09:38:36;;;;;;;4.38;1.33;;;9.60;99.90;;;;;;5046105;28;20047;-43
2022/04/07 09:41:08;;;;;;;3.42;1.35;;;9.60;99.90;;;;;;5044594;28;20068;-43
2022/04/07 09:43:47;;;;;;;8.85;1.50;;;9.70;99.90;;;;;;5046212;28;20040;-39
2022/04/07 09:46:19;;;;;;;4.53;1.33;;;9.70;99.90;;;;;;5045477;28;20109;-42
2022/04/07 09:49:09;;;;;;;6.80;1.30;;;9.80;99.90;;;;;;5045030;28;20025;-44
2022/04/07 09:51:47;;;;;;;5.90;1.10;;;9.90;99.90;;;;;;5045115;28;20476;-44
2022/04/07 09:54:17;;;;;;;4.18;1.10;;;9.90;99.90;;;;;;5044764;28;20472;-43
2022/04/07 09:56:47;;;;;;;6.60;1.50;;;10.00;99.90;;;;;;5044267;28;20072;-44
2022/04/07 09:59:18;;;;;;;10.90;1.70;;;10.00;99.90;;;;;;5045939;28;20188;-43
2022/04/07 10:01:43;;;;;;;7.15;1.77;;;10.00;99.90;;;;;;5044409;28;20037;-40
2022/04/07 10:04:10;;;;;;;6.72;1.23;;;9.90;99.90;;;;;;5045922;28;20090;-43
2022/04/07 10:06:38;;;;;;;5.22;1.20;;;10.00;99.90;;;;;;5045333;28;20037;-43
2022/04/07 10:09:07;;;;;;;8.32;2.00;;;10.20;99.90;;;;;;5044940;28;20434;-46
2022/04/07 10:11:33;;;;;;;4.75;1.13;;;10.30;99.90;;;;;;5045727;28;20032;-44
2022/04/07 10:13:59;;;;;;;4.43;1.00;;;10.40;99.90;;;;;;5045224;28;20043;-42
2022/04/07 10:16:26;;;;;;;5.93;1.23;;;10.50;99.90;;;;;;5045141;28;20713;-43
2022/04/07 10:18:58;;;;;;;4.35;0.98;;;10.70;99.90;;;;;;5044953;28;20051;-41
2022/04/07 10:21:50;;;;;;;5.18;1.20;;;10.70;99.90;;;;;;5045189;28;20477;-43
2022/04/07 10:24:35;;;;;;;7.97;1.13;;;10.80;99.90;;;;;;5044873;28;20037;-43
2022/04/07 10:27:02;;;;;;;5.68;1.20;;;10.80;99.90;;;;;;5044977;28;20104;-43
2022/04/07 10:29:29;;;;;;;5.38;1.00;;;10.80;99.90;;;;;;5044679;28;20049;-43
2022/04/07 10:32:58;;;;;;;7.30;1.38;;;10.70;99.90;;;;;;5044816;28;20427;-43
2022/04/07 10:35:02;;;;;;;6.57;1.23;;;10.60;99.90;;;;;;5029948;28;20048;-42
2022/04/07 10:37:43;;;;;;;7.28;1.40;;;10.60;99.90;;;;;;5039531;28;20017;-44
2022/04/07 10:40:50;;;;;;;5.45;1.60;;;10.60;99.90;;;;;;5025527;28;20032;-43
2022/04/07 10:43:22;;;;;;;6.55;1.40;;;10.70;99.90;;;;;;5045079;28;20052;-41
2022/04/07 10:45:52;;;;;;;6.25;0.95;;;10.80;99.90;;;;;;5045129;28;20472;-44
2022/04/07 10:48:29;;;;;;;8.35;1.38;;;10.90;99.90;;;;;;5044866;28;20108;-43
2022/04/07 10:51:01;;;;;;;8.15;1.35;;;11.00;99.90;;;;;;5043964;28;20041;-43
2022/04/07 10:53:47;;;;;;;8.68;1.55;;;11.10;99.90;;;;;;5044840;28;20036;-41
2022/04/07 10:56:38;;;;;;;7.60;1.58;;;11.10;99.90;;;;;;5041076;28;20124;-43
2022/04/07 10:59:10;;;;;;;7.78;1.77;;;11.30;99.90;;;;;;5043833;28;20037;-44
2022/04/07 11:01:39;;;;;;;11.10;1.80;;;11.20;99.90;;;;;;5045250;28;20031;-43
2022/04/07 11:04:23;;;;;;;8.68;2.60;;;11.20;99.90;;;;;;5045310;28;20051;-44
2022/04/07 11:09:53;;;;;;;9.02;2.38;;;11.00;99.90;;;;;;5048121;28;20032;-43
2022/04/07 11:12:29;;;;;;;6.97;1.58;;;10.90;99.90;;;;;;5048030;28;20020;-43
2022/04/07 11:15:04;;;;;;;9.55;2.08;;;10.80;99.90;;;;;;5047786;28;20040;-42
2022/04/07 11:17:51;;;;;;;10.55;1.80;;;10.80;99.90;;;;;;5048323;28;20358;-44
2022/04/07 11:20:21;;;;;;;8.73;2.40;;;10.70;99.90;;;;;;5038633;28;20033;-44
2022/04/07 11:23:02;;;;;;;7.47;1.85;;;10.70;99.90;;;;;;5048097;28;20021;-43
2022/04/07 11:25:36;;;;;;;9.13;1.98;;;10.70;99.90;;;;;;5038715;28;20102;-44
2022/04/07 11:28:15;;;;;;;7.05;1.85;;;10.60;99.90;;;;;;5047683;28;20112;-44
2022/04/07 11:31:07;;;;;;;7.03;1.67;;;10.70;99.90;;;;;;5038959;28;20128;-42
2022/04/07 11:33:38;;;;;;;11.32;2.10;;;10.70;99.90;;;;;;5047277;28;20064;-44
2022/04/07 11:36:03;;;;;;;11.30;2.70;;;10.70;99.90;;;;;;5047745;28;20036;-42
2022/04/07 11:38:37;;;;;;;9.18;2.10;;;10.70;99.90;;;;;;5048239;28;20037;-44
2022/04/07 11:41:20;;;;;;;9.55;2.40;;;10.70;99.90;;;;;;5046923;28;20037;-43
2022/04/07 11:43:50;;;;;;;9.32;2.00;;;10.80;99.90;;;;;;5047542;28;20025;-43
2022/04/07 11:46:26;;;;;;;10.48;2.22;;;10.90;99.90;;;;;;5047925;28;20570;-44
2022/04/07 11:48:54;;;;;;;9.02;2.13;;;10.90;99.90;;;;;;5046877;28;20091;-43
2022/04/07 11:51:19;;;;;;;8.18;2.13;;;11.00;99.90;;;;;;5047961;28;20044;-43
2022/04/07 11:53:52;;;;;;;11.00;2.00;;;11.00;99.90;;;;;;5046480;28;20387;-43
2022/04/07 11:56:27;;;;;;;7.63;1.83;;;11.00;99.90;;;;;;5047900;28;20034;-43
2022/04/07 11:58:57;;;;;;;10.57;1.63;;;11.10;99.90;;;;;;5047589;28;20106;-43
2022/04/07 12:01:23;;;;;;;7.93;1.80;;;11.00;99.90;;;;;;5047397;28;20036;-43
2022/04/07 12:03:53;;;;;;;8.07;1.98;;;11.10;99.90;;;;;;5047067;28;20080;-43
2022/04/07 12:06:30;;;;;;;8.55;2.20;;;11.00;99.90;;;;;;5047965;28;20017;-44
2022/04/07 12:08:57;;;;;;;10.27;2.47;;;11.00;99.90;;;;;;5046401;28;20032;-43
2022/04/07 12:11:24;;;;;;;13.00;2.13;;;11.10;99.90;;;;;;5047511;28;21044;-44
2022/04/07 12:13:50;;;;;;;9.57;2.03;;;11.20;99.90;;;;;;5047371;28;20071;-43
2022/04/07 12:16:16;;;;;;;7.60;2.22;;;11.30;99.90;;;;;;5045626;28;20029;-44
2022/04/07 12:18:59;;;;;;;10.93;2.40;;;11.40;99.90;;;;;;5047281;28;20090;-44
2022/04/07 12:21:26;;;;;;;10.20;2.40;;;11.50;99.90;;;;;;5047918;28;20104;-45
2022/04/07 12:24:13;;;;;;;6.50;2.15;;;11.40;99.90;;;;;;5046495;28;20035;-43
2022/04/07 12:26:47;;;;;;;8.35;1.65;;;11.40;99.90;;;;;;5046882;28;20037;-43
2022/04/07 12:29:24;;;;;;;7.75;2.25;;;11.50;99.90;;;;;;5046986;28;20052;-43
2022/04/07 12:32:09;;;;;;;10.43;2.13;;;11.50;99.90;;;;;;5046057;28;20024;-44
2022/04/07 12:34:50;;;;;;;10.35;1.98;;;11.40;99.90;;;;;;5046947;28;20033;-43
2022/04/07 12:37:43;;;;;;;8.70;2.35;;;11.40;99.90;;;;;;5046092;28;20021;-44
2022/04/07 12:40:15;;;;;;;8.43;2.22;;;11.40;99.90;;;;;;5047576;28;20056;-44
2022/04/07 12:42:55;;;;;;;10.07;2.55;;;11.40;99.90;;;;;;5046834;28;20068;-41
2022/04/07 12:45:21;;;;;;;12.23;2.10;;;11.40;99.90;;;;;;5046800;28;20059;-42
2022/04/07 12:48:07;;;;;;;7.55;2.00;;;11.40;99.90;;;;;;5046521;28;20056;-44
2022/04/07 12:50:33;;;;;;;9.23;1.95;;;11.40;99.90;;;;;;5046092;28;20039;-45
2022/04/07 12:53:00;;;;;;;7.85;1.88;;;11.50;99.90;;;;;;5045930;28;20037;-43
2022/04/07 12:55:51;;;;;;;7.95;2.30;;;11.60;99.90;;;;;;5047298;28;20027;-42
2022/04/07 12:58:26;;;;;;;8.00;2.08;;;11.70;99.90;;;;;;5044726;28;20045;-44